Time;durP1;ratioP1;P1;durP2;ratioP2;P2;SDS_P1;SDS_P2;PMS_P1;PMS_P2;Temp;Humidity;BMP_temperature;BMP_pressure;BME280_temperature;BME280_humidity;BME280_pressure;Samples;Min_cycle;Max_cycle;Signal;HPM_P1;HPM_P2
2023/08/28 00:01:34;;;;;;;2.83;1.50;;;19.40;93.10;;;;;;5047079;28;20048;-55
2023/08/28 00:04:00;;;;;;;8.73;1.92;;;19.50;93.10;;;;;;5045622;28;20034;-55
2023/08/28 00:06:25;;;;;;;3.90;1.48;;;19.40;93.10;;;;;;5046024;28;20549;-55
2023/08/28 00:08:51;;;;;;;3.05;1.55;;;19.50;93.10;;;;;;5045767;28;20053;-55
2023/08/28 00:11:19;;;;;;;2.83;1.73;;;19.50;93.00;;;;;;5045568;28;20045;-55
2023/08/28 00:13:45;;;;;;;2.53;1.48;;;19.40;93.00;;;;;;5047052;28;20497;-55
2023/08/28 00:16:10;;;;;;;3.40;1.50;;;19.40;93.30;;;;;;5045715;28;20029;-55
2023/08/28 00:18:36;;;;;;;6.40;1.88;;;19.40;93.10;;;;;;5045221;28;20935;-55
2023/08/28 00:21:03;;;;;;;2.15;1.45;;;19.40;93.10;;;;;;5047088;28;20034;-55
2023/08/28 00:23:32;;;;;;;3.00;1.58;;;19.40;93.10;;;;;;5046776;28;20032;-55
2023/08/28 00:25:58;;;;;;;3.00;1.38;;;19.40;93.10;;;;;;5045308;28;20036;-55
2023/08/28 00:28:23;;;;;;;2.78;1.50;;;19.40;93.20;;;;;;5045604;28;20017;-55
2023/08/28 00:30:49;;;;;;;3.60;1.63;;;19.40;93.10;;;;;;5045316;28;20093;-55
2023/08/28 00:33:14;;;;;;;2.67;1.60;;;19.40;93.20;;;;;;5045318;28;20072;-55
2023/08/28 00:35:40;;;;;;;2.90;1.48;;;19.40;93.20;;;;;;5046885;28;20037;-55
2023/08/28 00:38:05;;;;;;;3.67;1.83;;;19.40;93.20;;;;;;5044930;28;20029;-55
2023/08/28 00:40:31;;;;;;;4.20;1.90;;;19.30;93.20;;;;;;5045194;28;20056;-55
2023/08/28 00:42:57;;;;;;;3.25;1.83;;;19.40;93.20;;;;;;5044940;28;20477;-55
2023/08/28 00:45:22;;;;;;;3.20;1.48;;;19.30;93.30;;;;;;5045153;28;20184;-55
2023/08/28 00:47:48;;;;;;;3.45;1.65;;;19.30;93.30;;;;;;5045073;28;20079;-55
2023/08/28 00:50:14;;;;;;;3.53;1.63;;;19.30;93.30;;;;;;5044807;28;20089;-55
2023/08/28 00:52:39;;;;;;;3.20;1.45;;;19.30;93.30;;;;;;5044867;28;20030;-54
2023/08/28 00:55:05;;;;;;;1.70;1.27;;;19.30;93.30;;;;;;5045023;28;20132;-54
2023/08/28 00:57:31;;;;;;;5.57;1.73;;;19.30;93.30;;;;;;5044700;28;20025;-55
2023/08/28 01:00:00;;;;;;;5.00;1.50;;;19.30;93.30;;;;;;5044829;28;20033;-55
2023/08/28 01:02:25;;;;;;;2.97;1.20;;;19.30;93.30;;;;;;5044821;28;20390;-55
2023/08/28 01:04:52;;;;;;;3.00;1.30;;;19.30;93.30;;;;;;5045858;28;20037;-55
2023/08/28 01:07:26;;;;;;;3.63;1.80;;;19.30;93.30;;;;;;5044742;28;20029;-55
2023/08/28 01:10:09;;;;;;;3.53;1.42;;;19.30;93.30;;;;;;5027932;28;20117;-54
2023/08/28 01:12:53;;;;;;;5.20;1.50;;;19.30;93.30;;;;;;5045839;28;20364;-55
2023/08/28 01:15:20;;;;;;;3.97;1.60;;;19.30;93.40;;;;;;5045889;28;20037;-54
2023/08/28 01:17:47;;;;;;;4.32;1.30;;;19.30;93.40;;;;;;5044227;28;20018;-57
2023/08/28 01:20:15;;;;;;;4.78;1.27;;;19.30;93.40;;;;;;5044326;28;20128;-57
2023/08/28 01:22:57;;;;;;;3.03;1.50;;;19.30;93.40;;;;;;5027891;28;20036;-55
2023/08/28 01:25:24;;;;;;;1.38;1.23;;;19.30;93.50;;;;;;5027435;28;20030;-55
2023/08/28 01:27:51;;;;;;;3.75;1.55;;;19.20;93.50;;;;;;5044105;28;20045;-55
2023/08/28 01:30:17;;;;;;;2.25;1.42;;;19.20;93.50;;;;;;5044162;28;20031;-55
2023/08/28 01:32:43;;;;;;;2.60;1.50;;;19.20;93.60;;;;;;5045380;28;20053;-55
2023/08/28 01:35:20;;;;;;;2.55;1.60;;;19.20;93.60;;;;;;5043862;28;20029;-55
2023/08/28 01:38:19;;;;;;;2.08;1.42;;;19.20;93.70;;;;;;5043840;28;20052;-55
2023/08/28 01:41:20;;;;;;;2.55;1.23;;;19.20;93.70;;;;;;5045434;28;20053;-55
2023/08/28 01:43:47;;;;;;;2.20;1.50;;;19.20;93.60;;;;;;5026158;28;20053;-55
2023/08/28 01:46:13;;;;;;;3.33;1.40;;;19.20;93.90;;;;;;5039846;28;20040;-55
2023/08/28 01:48:52;;;;;;;2.08;1.30;;;19.20;93.70;;;;;;5043821;28;20101;-55
2023/08/28 01:51:18;;;;;;;3.28;1.38;;;19.20;93.70;;;;;;5045254;28;20051;-55
2023/08/28 01:53:43;;;;;;;1.92;1.17;;;19.20;93.70;;;;;;5045180;28;20049;-55
2023/08/28 01:56:09;;;;;;;1.52;0.90;;;19.20;93.70;;;;;;5027431;28;20029;-55
2023/08/28 01:58:40;;;;;;;1.50;1.20;;;19.20;93.60;;;;;;5045198;28;20036;-55
2023/08/28 02:01:06;;;;;;;1.48;1.17;;;19.10;93.60;;;;;;5044050;28;20033;-55
2023/08/28 02:03:31;;;;;;;3.33;1.48;;;19.10;93.70;;;;;;5027022;28;20025;-55
2023/08/28 02:05:57;;;;;;;1.80;1.30;;;19.10;93.70;;;;;;5043618;28;20059;-55
2023/08/28 02:08:22;;;;;;;1.98;1.27;;;19.10;93.70;;;;;;5045124;28;20033;-55
2023/08/28 02:10:48;;;;;;;1.58;1.05;;;19.10;93.70;;;;;;5043607;28;20071;-55
2023/08/28 02:13:13;;;;;;;3.70;1.50;;;19.10;93.80;;;;;;5043588;28;20487;-54
2023/08/28 02:15:39;;;;;;;2.63;1.00;;;19.10;93.80;;;;;;5043389;28;20446;-55
2023/08/28 02:18:05;;;;;;;3.05;1.27;;;19.10;93.80;;;;;;5043444;28;20022;-55
2023/08/28 02:20:31;;;;;;;1.98;1.20;;;19.10;93.80;;;;;;5043368;28;20033;-55
2023/08/28 02:22:57;;;;;;;2.35;1.30;;;19.10;93.80;;;;;;5043175;28;20029;-55
2023/08/28 02:25:23;;;;;;;2.92;1.17;;;19.10;93.80;;;;;;5044605;28;20056;-55
2023/08/28 02:27:49;;;;;;;1.40;1.00;;;19.10;93.80;;;;;;5026754;28;20033;-54
2023/08/28 02:30:15;;;;;;;1.27;1.17;;;19.10;93.80;;;;;;5043150;28;20026;-55
2023/08/28 02:32:41;;;;;;;2.40;1.40;;;19.10;93.80;;;;;;5043431;28;20030;-55
2023/08/28 02:35:07;;;;;;;1.85;1.20;;;19.00;93.70;;;;;;5043004;28;20030;-55
2023/08/28 02:37:33;;;;;;;1.55;1.17;;;19.00;93.70;;;;;;5044638;28;20100;-55
2023/08/28 02:39:59;;;;;;;3.75;1.58;;;19.00;93.70;;;;;;5043541;28;20118;-53
2023/08/28 02:42:25;;;;;;;1.38;1.10;;;19.00;93.80;;;;;;5044517;28;20033;-55
2023/08/28 02:44:50;;;;;;;3.08;1.40;;;19.00;93.80;;;;;;5043106;28;20121;-55
2023/08/28 02:47:16;;;;;;;1.60;1.10;;;19.00;93.80;;;;;;5045474;28;20075;-55
2023/08/28 02:49:41;;;;;;;1.50;1.00;;;19.00;93.80;;;;;;5048709;28;20029;-55
2023/08/28 02:52:07;;;;;;;1.73;1.02;;;19.00;93.80;;;;;;5048691;28;20029;-55
2023/08/28 02:54:32;;;;;;;1.08;0.82;;;19.00;93.70;;;;;;5047322;28;20418;-54
2023/08/28 02:56:59;;;;;;;1.50;1.10;;;19.00;93.70;;;;;;5046860;28;20455;-55
2023/08/28 02:59:24;;;;;;;2.30;1.25;;;19.00;93.80;;;;;;5046932;28;20119;-54
2023/08/28 03:01:50;;;;;;;1.50;1.10;;;19.00;93.80;;;;;;5046813;28;20021;-55
2023/08/28 03:04:16;;;;;;;2.22;1.10;;;19.00;93.70;;;;;;5047173;28;20370;-55
2023/08/28 03:06:42;;;;;;;1.52;1.13;;;19.00;93.80;;;;;;5048249;28;20087;-55
2023/08/28 03:09:07;;;;;;;1.48;1.00;;;19.00;93.80;;;;;;5048170;28;20029;-55
2023/08/28 03:11:34;;;;;;;0.95;0.85;;;19.00;93.80;;;;;;5046770;28;20041;-55
2023/08/28 03:13:59;;;;;;;1.58;0.95;;;19.00;93.80;;;;;;5046707;28;20037;-55
2023/08/28 03:16:25;;;;;;;2.58;1.40;;;19.00;93.80;;;;;;5046664;28;20029;-54
2023/08/28 03:18:51;;;;;;;2.08;1.20;;;19.00;93.80;;;;;;5046389;28;20029;-55
2023/08/28 03:21:16;;;;;;;3.58;1.40;;;18.90;93.80;;;;;;5029989;28;20030;-55
2023/08/28 03:23:42;;;;;;;1.10;1.00;;;18.90;93.90;;;;;;5047956;28;20053;-54
2023/08/28 03:26:07;;;;;;;5.18;1.48;;;18.90;93.90;;;;;;5046554;28;20470;-55
2023/08/28 03:28:33;;;;;;;2.22;1.35;;;18.90;94.00;;;;;;5046491;28;20026;-55
2023/08/28 03:30:59;;;;;;;3.13;1.15;;;18.80;94.00;;;;;;5046379;28;20033;-55
2023/08/28 03:33:25;;;;;;;3.20;1.10;;;18.80;94.00;;;;;;5046444;28;20060;-55
2023/08/28 03:35:50;;;;;;;1.88;1.00;;;18.90;94.00;;;;;;5046425;28;20033;-55
2023/08/28 03:38:16;;;;;;;1.88;1.25;;;18.90;94.00;;;;;;5046261;28;20056;-54
2023/08/28 03:40:43;;;;;;;2.35;1.10;;;18.90;94.00;;;;;;5046317;28;20113;-54
2023/08/28 03:43:08;;;;;;;1.95;1.27;;;18.80;94.00;;;;;;5046282;28;20063;-54
2023/08/28 03:45:34;;;;;;;1.38;1.13;;;18.90;94.00;;;;;;5046216;28;20053;-54
2023/08/28 03:48:00;;;;;;;0.80;0.77;;;18.80;94.00;;;;;;5047319;28;20033;-54
2023/08/28 03:50:29;;;;;;;1.85;1.30;;;18.80;94.00;;;;;;5047306;28;20025;-54
2023/08/28 03:52:57;;;;;;;2.65;1.20;;;18.80;94.00;;;;;;5045981;28;20026;-54
2023/08/28 03:55:23;;;;;;;1.67;0.88;;;18.80;94.00;;;;;;5045917;28;20366;-54
2023/08/28 03:57:50;;;;;;;1.98;0.88;;;18.80;94.10;;;;;;5045934;28;20045;-54
2023/08/28 04:00:15;;;;;;;1.55;1.02;;;18.80;94.10;;;;;;5028749;28;20068;-54
2023/08/28 04:02:41;;;;;;;1.35;1.20;;;18.80;94.20;;;;;;5047253;28;20040;-54
2023/08/28 04:05:07;;;;;;;1.67;1.05;;;18.80;94.20;;;;;;5046924;28;20025;-55
2023/08/28 04:07:33;;;;;;;1.17;0.80;;;18.80;94.20;;;;;;5029242;28;20029;-54
2023/08/28 04:09:59;;;;;;;1.05;0.88;;;18.80;94.20;;;;;;5045728;28;20032;-54
2023/08/28 04:12:24;;;;;;;2.17;1.20;;;18.80;94.20;;;;;;5046899;28;20056;-54
2023/08/28 04:14:50;;;;;;;2.90;1.00;;;18.80;94.30;;;;;;5046870;28;20029;-54
2023/08/28 04:17:16;;;;;;;1.00;0.90;;;18.80;94.20;;;;;;5045575;28;20034;-54
2023/08/28 04:19:42;;;;;;;1.35;0.73;;;18.80;94.30;;;;;;5045485;28;20044;-54
2023/08/28 04:22:07;;;;;;;1.85;1.00;;;18.80;94.30;;;;;;5028865;28;20373;-54
2023/08/28 04:24:33;;;;;;;1.77;1.10;;;18.80;94.30;;;;;;5046764;28;20156;-54
2023/08/28 04:26:58;;;;;;;1.02;0.90;;;18.80;94.30;;;;;;5045566;28;20039;-54
2023/08/28 04:29:24;;;;;;;3.60;1.05;;;18.70;94.30;;;;;;5046397;28;20079;-54
2023/08/28 04:31:49;;;;;;;3.60;0.88;;;18.70;94.30;;;;;;5045232;28;20025;-53
2023/08/28 04:34:15;;;;;;;3.67;1.08;;;18.70;94.30;;;;;;5028453;28;20037;-54
2023/08/28 04:36:41;;;;;;;1.52;0.80;;;18.70;94.30;;;;;;5045004;28;20109;-54
2023/08/28 04:39:06;;;;;;;2.10;1.05;;;18.70;94.20;;;;;;5044996;28;20037;-54
2023/08/28 04:41:33;;;;;;;1.83;0.90;;;18.70;94.20;;;;;;5045045;28;20030;-54
2023/08/28 04:43:58;;;;;;;0.98;0.73;;;18.60;94.20;;;;;;5044968;28;20418;-54
2023/08/28 04:46:25;;;;;;;2.75;1.10;;;18.60;94.10;;;;;;5045121;28;20037;-55
2023/08/28 04:48:50;;;;;;;4.32;1.20;;;18.60;94.10;;;;;;5044921;28;20108;-54
2023/08/28 04:51:16;;;;;;;2.13;1.20;;;18.60;94.20;;;;;;5046178;28;20025;-54
2023/08/28 04:53:41;;;;;;;2.22;1.00;;;18.50;94.10;;;;;;5044791;28;20030;-54
2023/08/28 04:56:07;;;;;;;3.90;1.20;;;18.50;94.10;;;;;;5046215;28;20033;-55
2023/08/28 04:58:33;;;;;;;1.42;0.90;;;18.50;94.10;;;;;;5044724;28;20458;-54
2023/08/28 05:00:59;;;;;;;1.83;1.02;;;18.50;94.10;;;;;;5044542;28;20037;-54
2023/08/28 05:03:25;;;;;;;1.27;0.90;;;18.50;94.10;;;;;;5044607;28;20136;-54
2023/08/28 05:05:51;;;;;;;1.10;0.90;;;18.50;94.00;;;;;;5044524;28;20025;-54
2023/08/28 05:08:16;;;;;;;4.28;1.02;;;18.50;94.00;;;;;;5044540;28;20037;-55
2023/08/28 05:10:42;;;;;;;1.58;1.00;;;18.50;94.00;;;;;;5044855;28;20032;-55
2023/08/28 05:13:07;;;;;;;1.52;1.15;;;18.50;94.00;;;;;;5045946;28;20030;-55
2023/08/28 05:15:33;;;;;;;2.95;0.90;;;18.40;93.90;;;;;;5044591;28;20021;-54
2023/08/28 05:17:58;;;;;;;2.42;1.00;;;18.50;93.90;;;;;;5044322;28;20120;-54
2023/08/28 05:20:24;;;;;;;1.75;1.13;;;18.40;93.80;;;;;;5045438;28;20030;-54
2023/08/28 05:22:49;;;;;;;2.03;0.93;;;18.50;93.80;;;;;;5044321;28;20033;-55
2023/08/28 05:25:15;;;;;;;3.00;1.15;;;18.40;93.80;;;;;;5027664;28;20151;-55
2023/08/28 05:27:40;;;;;;;1.45;0.90;;;18.50;93.80;;;;;;5044277;28;20025;-54
2023/08/28 05:30:07;;;;;;;1.85;0.77;;;18.50;93.80;;;;;;5044021;28;20033;-55
2023/08/28 05:32:33;;;;;;;1.00;0.70;;;18.40;93.80;;;;;;5045470;28;20076;-55
2023/08/28 05:34:59;;;;;;;1.58;0.93;;;18.40;93.80;;;;;;5044193;28;20033;-55
2023/08/28 05:37:25;;;;;;;1.85;0.93;;;18.40;93.90;;;;;;5045518;28;20041;-55
2023/08/28 05:39:51;;;;;;;1.00;0.90;;;18.40;93.90;;;;;;5043979;28;20056;-54
2023/08/28 05:42:17;;;;;;;2.67;1.00;;;18.40;93.90;;;;;;5043986;28;20025;-54
2023/08/28 05:44:42;;;;;;;1.77;0.90;;;18.40;93.90;;;;;;5045435;28;20033;-54
2023/08/28 05:47:08;;;;;;;2.65;1.13;;;18.30;93.90;;;;;;5044030;28;20104;-55
2023/08/28 05:49:34;;;;;;;2.17;1.00;;;18.30;93.90;;;;;;5043893;28;20055;-55
2023/08/28 05:51:59;;;;;;;1.40;0.98;;;18.30;93.90;;;;;;5045073;28;20048;-54
2023/08/28 05:54:25;;;;;;;1.63;0.75;;;18.30;93.90;;;;;;5045376;28;20052;-55
2023/08/28 05:56:51;;;;;;;2.22;1.05;;;18.30;93.90;;;;;;5044106;28;20465;-55
2023/08/28 05:59:16;;;;;;;2.20;0.98;;;18.30;93.90;;;;;;5045549;28;20044;-54
2023/08/28 06:01:42;;;;;;;2.70;0.98;;;18.30;93.80;;;;;;5043696;28;20029;-54
2023/08/28 06:04:07;;;;;;;1.95;0.95;;;18.30;93.80;;;;;;5045195;28;20088;-55
2023/08/28 06:06:33;;;;;;;2.78;0.90;;;18.40;93.80;;;;;;5044459;28;20438;-54
2023/08/28 06:09:03;;;;;;;1.83;0.90;;;18.30;93.70;;;;;;5043511;28;20399;-55
2023/08/28 06:11:29;;;;;;;1.55;0.90;;;18.40;93.80;;;;;;5043489;28;20041;-55
2023/08/28 06:13:54;;;;;;;1.27;1.00;;;18.30;93.70;;;;;;5045269;28;20157;-55
2023/08/28 06:16:20;;;;;;;1.35;0.85;;;18.30;93.70;;;;;;5043701;28;20052;-54
2023/08/28 06:18:45;;;;;;;4.50;0.93;;;18.30;93.70;;;;;;5043474;28;20092;-55
2023/08/28 06:21:11;;;;;;;1.48;0.98;;;18.30;93.70;;;;;;5043095;28;20116;-55
2023/08/28 06:23:37;;;;;;;3.53;1.02;;;18.30;94.00;;;;;;5042955;28;20037;-55
2023/08/28 06:26:03;;;;;;;2.78;1.15;;;18.30;93.70;;;;;;5043220;28;20021;-55
2023/08/28 06:28:28;;;;;;;2.65;1.08;;;18.30;93.80;;;;;;5044737;28;20429;-55
2023/08/28 06:30:54;;;;;;;2.08;1.10;;;18.30;93.80;;;;;;5044678;28;20029;-54
2023/08/28 06:33:20;;;;;;;2.95;1.02;;;18.30;93.80;;;;;;5044503;28;20026;-55
2023/08/28 06:35:46;;;;;;;2.40;0.93;;;18.30;93.80;;;;;;5044636;28;20048;-57
2023/08/28 06:38:12;;;;;;;5.70;1.20;;;18.30;93.80;;;;;;5043160;28;20053;-55
2023/08/28 06:40:38;;;;;;;2.83;1.17;;;18.30;93.80;;;;;;5044480;28;20029;-54
2023/08/28 06:43:03;;;;;;;10.90;1.52;;;18.30;93.80;;;;;;5042936;28;20512;-55
2023/08/28 06:45:29;;;;;;;3.70;1.48;;;18.30;93.70;;;;;;5044433;28;20097;-56
2023/08/28 06:47:57;;;;;;;7.03;1.35;;;18.30;93.70;;;;;;5043063;28;20033;-55
2023/08/28 06:50:23;;;;;;;9.60;1.60;;;18.30;93.70;;;;;;5042988;28;20033;-57
2023/08/28 06:52:48;;;;;;;5.93;1.85;;;18.30;93.70;;;;;;5043012;28;20465;-57
2023/08/28 06:55:14;;;;;;;7.15;1.70;;;18.30;93.70;;;;;;5043014;28;20041;-56
2023/08/28 06:57:40;;;;;;;10.00;1.92;;;18.50;93.70;;;;;;5042983;28;20426;-57
2023/08/28 07:00:06;;;;;;;9.13;1.70;;;18.30;93.60;;;;;;5042707;28;20075;-55
2023/08/28 07:02:32;;;;;;;6.97;1.58;;;18.30;93.60;;;;;;5044359;28;20041;-55
2023/08/28 07:04:58;;;;;;;5.93;1.40;;;18.30;93.50;;;;;;5042787;28;20029;-55
2023/08/28 07:07:23;;;;;;;4.95;1.65;;;18.30;93.50;;;;;;5042697;28;20026;-55
2023/08/28 07:09:49;;;;;;;10.90;1.65;;;18.30;93.40;;;;;;5042796;28;20036;-55
2023/08/28 07:12:14;;;;;;;14.07;2.20;;;18.30;93.40;;;;;;5044250;28;20111;-54
2023/08/28 07:14:40;;;;;;;17.02;1.80;;;18.30;93.50;;;;;;5042993;28;20056;-55
2023/08/28 07:17:06;;;;;;;12.55;2.28;;;18.30;93.50;;;;;;5043816;28;20033;-55
2023/08/28 07:19:32;;;;;;;15.40;2.15;;;18.30;93.40;;;;;;5043686;28;20136;-55
2023/08/28 07:21:59;;;;;;;22.80;2.88;;;18.30;93.50;;;;;;5041377;28;20502;-54
2023/08/28 07:24:25;;;;;;;10.60;2.08;;;18.30;93.50;;;;;;5043829;28;20049;-55
2023/08/28 07:26:51;;;;;;;5.35;1.95;;;18.30;93.50;;;;;;5043575;28;20401;-55
2023/08/28 07:29:17;;;;;;;28.35;2.47;;;18.20;93.40;;;;;;5043903;28;20025;-55
2023/08/28 07:31:43;;;;;;;21.50;3.13;;;18.20;93.60;;;;;;5042886;28;20033;-55
2023/08/28 07:34:08;;;;;;;18.58;2.67;;;18.20;93.50;;;;;;5026473;28;20234;-55
2023/08/28 07:36:37;;;;;;;17.27;2.38;;;18.30;93.50;;;;;;5045929;28;20017;-55
2023/08/28 07:39:02;;;;;;;23.65;3.20;;;18.20;93.50;;;;;;5047270;28;20111;-54
2023/08/28 07:41:28;;;;;;;22.85;3.55;;;18.20;93.70;;;;;;5045622;28;20097;-55
2023/08/28 07:43:53;;;;;;;13.70;2.95;;;18.10;93.80;;;;;;5039931;28;20045;-55
2023/08/28 07:46:19;;;;;;;23.98;3.38;;;18.10;93.90;;;;;;5037734;28;20038;-55
2023/08/28 07:48:44;;;;;;;11.98;2.67;;;18.10;94.00;;;;;;5009626;28;20026;-55
2023/08/28 07:51:10;;;;;;;21.90;3.38;;;18.00;94.20;;;;;;5041382;28;20026;-55
2023/08/28 07:53:36;;;;;;;21.52;3.28;;;18.00;94.30;;;;;;5045668;28;20439;-55
2023/08/28 07:56:02;;;;;;;21.73;3.25;;;18.00;94.30;;;;;;5046576;28;20037;-55
2023/08/28 07:58:29;;;;;;;19.40;3.67;;;18.00;94.40;;;;;;5045265;28;20056;-55
2023/08/28 08:00:56;;;;;;;24.67;3.55;;;18.00;94.30;;;;;;5046742;28;20025;-55
2023/08/28 08:03:22;;;;;;;84.78;9.35;;;18.00;94.30;;;;;;5045325;28;20033;-55
2023/08/28 08:05:47;;;;;;;129.45;13.32;;;18.00;94.40;;;;;;5044329;28;20064;-54
2023/08/28 08:08:13;;;;;;;32.13;5.18;;;18.00;94.50;;;;;;5046037;28;20139;-55
2023/08/28 08:10:38;;;;;;;24.25;3.92;;;18.00;94.60;;;;;;5046599;28;20056;-55
2023/08/28 08:13:04;;;;;;;25.02;4.22;;;18.00;94.60;;;;;;5046539;28;20035;-55
2023/08/28 08:15:31;;;;;;;340.55;39.75;;;17.90;94.60;;;;;;5066603;28;20091;-55
2023/08/28 08:17:57;;;;;;;57.08;6.55;;;18.00;94.60;;;;;;5052469;28;20535;-54
2023/08/28 08:20:22;;;;;;;38.95;5.30;;;18.00;94.70;;;;;;5046251;28;20048;-55
2023/08/28 08:22:48;;;;;;;47.42;5.60;;;17.90;94.80;;;;;;5044500;28;20037;-55
2023/08/28 08:25:13;;;;;;;35.13;5.22;;;18.00;94.80;;;;;;5046282;28;20037;-55
2023/08/28 08:27:39;;;;;;;63.55;7.20;;;18.00;94.90;;;;;;5044537;28;20101;-55
2023/08/28 08:30:08;;;;;;;46.67;6.93;;;18.00;94.90;;;;;;5045840;28;20048;-55
2023/08/28 08:32:34;;;;;;;39.58;6.68;;;18.00;94.90;;;;;;5045649;28;20037;-54
2023/08/28 08:34:59;;;;;;;36.83;5.32;;;18.00;94.90;;;;;;5044449;28;20033;-54
2023/08/28 08:37:26;;;;;;;51.63;6.90;;;18.00;95.00;;;;;;5045131;28;20029;-55
2023/08/28 08:39:52;;;;;;;34.20;6.32;;;18.00;95.00;;;;;;5044671;28;20029;-55
2023/08/28 08:42:18;;;;;;;57.13;6.88;;;18.00;95.00;;;;;;5044691;28;20026;-55
2023/08/28 08:44:43;;;;;;;47.80;7.32;;;18.00;95.10;;;;;;5043674;28;20057;-54
2023/08/28 08:47:09;;;;;;;52.83;6.72;;;18.00;95.20;;;;;;5044647;28;20029;-55
2023/08/28 08:49:35;;;;;;;53.10;6.78;;;18.00;95.10;;;;;;5032489;28;20045;-55
2023/08/28 08:52:04;;;;;;;45.78;7.25;;;18.00;95.10;;;;;;5041714;28;20048;-55
2023/08/28 08:54:31;;;;;;;51.42;7.43;;;18.10;95.20;;;;;;5039011;28;20056;-55
2023/08/28 08:57:00;;;;;;;47.38;7.88;;;18.10;95.30;;;;;;5044701;28;20103;-55
2023/08/28 08:59:26;;;;;;;54.67;7.30;;;18.10;95.20;;;;;;5045663;28;20037;-55
2023/08/28 09:01:51;;;;;;;70.88;8.60;;;18.10;95.30;;;;;;5027119;28;20509;-55
2023/08/28 09:04:17;;;;;;;47.67;6.53;;;18.10;95.10;;;;;;5027735;28;20030;-55
2023/08/28 09:06:42;;;;;;;92.03;9.50;;;18.20;95.20;;;;;;5043576;28;20021;-55
2023/08/28 09:09:11;;;;;;;160.57;18.65;;;18.20;95.20;;;;;;5044589;28;20506;-55
2023/08/28 09:11:37;;;;;;;99.97;12.35;;;18.20;95.10;;;;;;5043333;28;20049;-55
2023/08/28 09:14:04;;;;;;;67.40;9.43;;;18.20;95.10;;;;;;5027773;28;20044;-55
2023/08/28 09:16:30;;;;;;;72.63;8.55;;;18.20;95.20;;;;;;5044614;28;20135;-55
2023/08/28 09:18:56;;;;;;;76.45;10.02;;;18.30;95.20;;;;;;5043974;28;20029;-57
2023/08/28 09:21:21;;;;;;;100.95;11.45;;;18.30;95.10;;;;;;5041461;28;20037;-57
2023/08/28 09:23:48;;;;;;;51.50;8.85;;;18.30;95.10;;;;;;5033184;28;20030;-57
2023/08/28 09:26:21;;;;;;;52.85;7.65;;;18.30;95.10;;;;;;5042991;28;20040;-57
2023/08/28 09:29:04;;;;;;;77.13;9.35;;;18.30;95.00;;;;;;5027012;28;20049;-56
2023/08/28 09:31:46;;;;;;;65.18;8.52;;;18.30;94.90;;;;;;5024416;28;20034;-55
2023/08/28 09:34:12;;;;;;;56.80;8.20;;;18.40;94.90;;;;;;5022285;28;20111;-57
2023/08/28 09:36:40;;;;;;;48.40;8.10;;;18.40;94.90;;;;;;5045076;28;20381;-57
2023/08/28 09:39:06;;;;;;;62.35;9.80;;;18.40;94.80;;;;;;5042370;28;20029;-57
2023/08/28 09:41:46;;;;;;;58.40;9.43;;;18.40;94.70;;;;;;5024073;28;20030;-57
2023/08/28 09:44:13;;;;;;;68.63;9.63;;;18.40;94.80;;;;;;5024010;28;20062;-55
2023/08/28 09:46:39;;;;;;;107.07;14.40;;;18.40;94.80;;;;;;5016073;28;20060;-55
2023/08/28 09:49:08;;;;;;;99.95;11.15;;;18.40;94.80;;;;;;5041975;28;20025;-57
2023/08/28 09:51:39;;;;;;;82.22;10.85;;;18.40;94.80;;;;;;5045149;28;20067;-56
2023/08/28 09:54:04;;;;;;;70.35;9.57;;;18.40;94.80;;;;;;5041406;28;20036;-57
2023/08/28 09:56:30;;;;;;;74.50;10.38;;;18.40;94.70;;;;;;5030621;28;20419;-58
2023/08/28 09:59:01;;;;;;;72.70;10.75;;;18.50;94.70;;;;;;5039857;28;20052;-57
2023/08/28 10:01:29;;;;;;;84.28;10.13;;;18.50;94.60;;;;;;5039145;28;20022;-55
2023/08/28 10:03:54;;;;;;;62.38;9.73;;;18.50;94.70;;;;;;5023189;28;20145;-55
2023/08/28 10:06:20;;;;;;;63.28;8.82;;;18.50;94.60;;;;;;5022938;28;20105;-55
2023/08/28 10:08:45;;;;;;;62.50;9.07;;;18.50;94.50;;;;;;5040849;28;20024;-55
2023/08/28 10:11:11;;;;;;;59.80;8.55;;;18.50;94.60;;;;;;5042714;28;20045;-55
2023/08/28 10:13:36;;;;;;;55.45;8.50;;;18.50;94.50;;;;;;5042688;28;20025;-54
2023/08/28 10:16:11;;;;;;;66.03;8.77;;;18.50;94.50;;;;;;5042743;28;20504;-55
2023/08/28 10:19:02;;;;;;;76.47;10.03;;;18.50;94.50;;;;;;5033448;28;20122;-55
2023/08/28 10:21:27;;;;;;;69.97;9.07;;;18.50;94.50;;;;;;5023456;28;20261;-54
2023/08/28 10:23:53;;;;;;;50.90;8.13;;;18.60;94.50;;;;;;5029373;28;20094;-55
2023/08/28 10:26:18;;;;;;;46.83;8.43;;;18.60;94.50;;;;;;5043554;28;20053;-54
2023/08/28 10:28:44;;;;;;;73.03;9.85;;;18.60;94.60;;;;;;5043264;28;20029;-54
2023/08/28 10:31:09;;;;;;;65.10;10.35;;;18.60;94.60;;;;;;5042611;28;20038;-54
2023/08/28 10:33:36;;;;;;;98.88;10.77;;;18.60;94.60;;;;;;5042330;28;20026;-56
2023/08/28 10:36:01;;;;;;;69.50;10.07;;;18.60;94.60;;;;;;5035650;28;20026;-56
2023/08/28 10:38:27;;;;;;;66.03;9.45;;;18.60;94.60;;;;;;5015946;28;20081;-56
2023/08/28 10:40:54;;;;;;;66.28;8.50;;;18.60;94.60;;;;;;5025990;28;20040;-55
2023/08/28 10:43:20;;;;;;;80.40;9.18;;;18.60;94.60;;;;;;5042491;28;20036;-55
2023/08/28 10:45:46;;;;;;;85.70;10.07;;;18.60;94.60;;;;;;5025697;28;20026;-55
2023/08/28 10:48:12;;;;;;;91.38;11.75;;;18.60;94.60;;;;;;5033669;28;20033;-55
2023/08/28 10:50:38;;;;;;;73.32;10.75;;;18.60;94.70;;;;;;5039366;28;20034;-55
2023/08/28 10:53:04;;;;;;;52.70;8.05;;;18.70;94.70;;;;;;5053821;28;20097;-55
2023/08/28 10:55:30;;;;;;;55.15;8.32;;;18.60;94.70;;;;;;5040592;28;20321;-55
2023/08/28 10:57:55;;;;;;;56.83;8.43;;;18.70;94.60;;;;;;5041449;28;20138;-55
2023/08/28 11:00:22;;;;;;;82.85;9.43;;;18.70;94.50;;;;;;5042624;28;20029;-55
2023/08/28 11:03:08;;;;;;;55.25;9.48;;;18.70;94.50;;;;;;5044394;28;20037;-55
2023/08/28 11:05:34;;;;;;;59.67;8.98;;;18.70;94.50;;;;;;5042834;28;20037;-55
2023/08/28 11:08:06;;;;;;;64.15;8.70;;;18.70;94.50;;;;;;5042695;28;20021;-55
2023/08/28 11:10:32;;;;;;;62.88;8.90;;;18.70;94.40;;;;;;5047230;28;20030;-55
2023/08/28 11:13:02;;;;;;;63.25;8.23;;;18.70;94.40;;;;;;5046298;28;20071;-55
2023/08/28 11:15:41;;;;;;;46.40;7.70;;;18.70;94.30;;;;;;5047869;28;20041;-55
2023/08/28 11:18:29;;;;;;;65.38;8.10;;;18.70;94.20;;;;;;5046261;28;20037;-55
2023/08/28 11:20:59;;;;;;;49.20;7.93;;;18.80;94.20;;;;;;5046650;28;20374;-55
2023/08/28 11:23:36;;;;;;;46.47;7.75;;;18.70;94.20;;;;;;5046338;28;20105;-55
2023/08/28 11:26:17;;;;;;;52.47;8.52;;;18.80;94.20;;;;;;5029126;28;20112;-55
2023/08/28 11:28:47;;;;;;;101.28;12.68;;;18.80;94.20;;;;;;5047010;28;20022;-55
2023/08/28 11:31:12;;;;;;;37.78;7.72;;;18.80;94.10;;;;;;5045140;28;20033;-55
2023/08/28 11:33:40;;;;;;;66.80;8.50;;;18.80;94.10;;;;;;5045907;28;20025;-53
2023/08/28 11:36:07;;;;;;;51.00;7.25;;;18.80;94.10;;;;;;5045390;28;20042;-54
2023/08/28 11:38:32;;;;;;;63.05;8.02;;;18.80;94.10;;;;;;5043201;28;20029;-55
2023/08/28 11:40:59;;;;;;;47.72;7.75;;;18.80;94.10;;;;;;5045329;28;20033;-55
2023/08/28 11:43:25;;;;;;;54.40;7.80;;;18.80;94.10;;;;;;5045691;28;20071;-55
2023/08/28 11:45:57;;;;;;;57.10;6.82;;;18.80;94.10;;;;;;5047289;28;20030;-55
2023/08/28 11:48:23;;;;;;;41.35;6.75;;;18.80;94.00;;;;;;5047362;28;20025;-55
2023/08/28 11:50:49;;;;;;;47.03;7.35;;;18.80;94.10;;;;;;5045984;28;20366;-55
2023/08/28 11:53:14;;;;;;;48.28;8.38;;;18.80;94.00;;;;;;5045346;28;20029;-55
2023/08/28 11:55:40;;;;;;;68.53;10.02;;;18.80;94.10;;;;;;5026976;28;20025;-55
2023/08/28 11:58:06;;;;;;;78.15;9.75;;;18.80;94.10;;;;;;5051335;28;20038;-55
2023/08/28 12:00:31;;;;;;;51.03;8.75;;;18.80;94.10;;;;;;5055298;28;20022;-54
2023/08/28 12:02:57;;;;;;;60.20;8.63;;;18.80;94.00;;;;;;5054361;28;20029;-55
2023/08/28 12:05:23;;;;;;;60.80;8.38;;;18.90;94.00;;;;;;5052616;28;20041;-54
2023/08/28 12:07:49;;;;;;;64.22;9.98;;;18.80;93.90;;;;;;5037087;28;20532;-54
2023/08/28 12:10:16;;;;;;;68.22;8.80;;;18.90;94.00;;;;;;5043823;28;20041;-55
2023/08/28 12:12:41;;;;;;;50.40;8.18;;;18.90;93.90;;;;;;5043089;28;20053;-54
2023/08/28 12:15:10;;;;;;;53.83;9.05;;;18.90;93.90;;;;;;5042874;28;20029;-55
2023/08/28 12:17:36;;;;;;;64.38;7.55;;;18.90;93.90;;;;;;5026683;28;20029;-55
2023/08/28 12:20:05;;;;;;;74.97;10.60;;;18.90;93.90;;;;;;5042056;28;20033;-55
2023/08/28 12:22:32;;;;;;;67.07;10.95;;;19.00;93.80;;;;;;5042578;28;20025;-55
2023/08/28 12:24:58;;;;;;;62.17;9.48;;;19.00;93.90;;;;;;5037988;28;20124;-55
2023/08/28 12:27:25;;;;;;;86.95;11.57;;;19.00;93.90;;;;;;5044524;28;20026;-57
2023/08/28 12:29:51;;;;;;;74.20;10.82;;;19.00;93.90;;;;;;5044890;28;20045;-56
2023/08/28 12:32:17;;;;;;;82.10;10.88;;;19.00;93.90;;;;;;5044444;28;20098;-55
2023/08/28 12:34:44;;;;;;;122.00;19.13;;;19.00;93.90;;;;;;5044671;28;20048;-54
2023/08/28 12:37:11;;;;;;;153.95;18.45;;;19.00;94.00;;;;;;5044718;28;20037;-54
2023/08/28 12:39:46;;;;;;;82.80;11.55;;;18.90;94.00;;;;;;5039514;28;20044;-54